sensor_id;sensor_type;location;lat;lon;timestamp;pressure;altitude;pressure_sealevel;temperature;humidity
72640;BME280;60683;51.730;8.762;2024-03-17T00:00:42;101166.84;;;5.92;98.84
72640;BME280;60683;51.730;8.762;2024-03-17T00:03:47;101171.91;;;5.79;100.00
72640;BME280;60683;51.730;8.762;2024-03-17T00:06:33;101162.97;;;5.72;100.00
72640;BME280;60683;51.730;8.762;2024-03-17T00:09:17;101166.00;;;5.69;100.00
72640;BME280;60683;51.730;8.762;2024-03-17T00:12:05;101163.81;;;5.41;100.00
72640;BME280;60683;51.730;8.762;2024-03-17T00:14:49;101162.56;;;5.21;100.00
72640;BME280;60683;51.730;8.762;2024-03-17T00:17:35;101168.97;;;5.04;100.00
72640;BME280;60683;51.730;8.762;2024-03-17T00:20:19;101167.38;;;4.86;100.00
72640;BME280;60683;51.730;8.762;2024-03-17T00:23:05;101171.03;;;4.77;100.00
72640;BME280;60683;51.730;8.762;2024-03-17T00:25:50;101157.56;;;4.71;100.00
72640;BME280;60683;51.730;8.762;2024-03-17T00:28:37;101165.44;;;4.56;100.00
72640;BME280;60683;51.730;8.762;2024-03-17T00:31:21;101175.09;;;4.57;100.00
72640;BME280;60683;51.730;8.762;2024-03-17T00:34:08;101167.78;;;4.51;100.00
72640;BME280;60683;51.730;8.762;2024-03-17T00:36:53;101172.13;;;4.44;100.00
72640;BME280;60683;51.730;8.762;2024-03-17T00:39:39;101169.13;;;4.39;100.00
72640;BME280;60683;51.730;8.762;2024-03-17T00:42:23;101168.78;;;4.25;100.00
72640;BME280;60683;51.730;8.762;2024-03-17T00:45:10;101176.16;;;4.15;100.00
72640;BME280;60683;51.730;8.762;2024-03-17T00:47:54;101174.81;;;4.03;100.00
72640;BME280;60683;51.730;8.762;2024-03-17T00:50:40;101173.28;;;3.92;100.00
72640;BME280;60683;51.730;8.762;2024-03-17T00:53:24;101176.59;;;3.86;100.00
72640;BME280;60683;51.730;8.762;2024-03-17T00:56:10;101175.44;;;3.81;100.00
72640;BME280;60683;51.730;8.762;2024-03-17T00:58:54;101179.25;;;3.78;100.00
72640;BME280;60683;51.730;8.762;2024-03-17T01:01:41;101166.97;;;3.85;100.00
72640;BME280;60683;51.730;8.762;2024-03-17T01:04:28;101163.78;;;3.74;100.00
72640;BME280;60683;51.730;8.762;2024-03-17T01:07:13;101170.59;;;3.68;100.00
72640;BME280;60683;51.730;8.762;2024-03-17T01:09:57;101157.28;;;3.68;100.00
72640;BME280;60683;51.730;8.762;2024-03-17T01:12:42;101159.63;;;3.63;100.00
72640;BME280;60683;51.730;8.762;2024-03-17T01:15:27;101163.13;;;3.63;100.00
72640;BME280;60683;51.730;8.762;2024-03-17T01:18:13;101154.97;;;3.57;100.00
72640;BME280;60683;51.730;8.762;2024-03-17T01:20:57;101163.06;;;3.47;100.00
72640;BME280;60683;51.730;8.762;2024-03-17T01:23:42;101153.09;;;3.41;100.00
72640;BME280;60683;51.730;8.762;2024-03-17T01:26:27;101155.06;;;3.39;100.00
72640;BME280;60683;51.730;8.762;2024-03-17T01:29:12;101151.94;;;3.44;100.00
72640;BME280;60683;51.730;8.762;2024-03-17T01:31:57;101148.78;;;3.40;100.00
72640;BME280;60683;51.730;8.762;2024-03-17T01:34:43;101153.69;;;3.27;100.00
72640;BME280;60683;51.730;8.762;2024-03-17T01:37:29;101147.53;;;3.18;100.00
72640;BME280;60683;51.730;8.762;2024-03-17T01:40:16;101151.66;;;3.13;100.00
72640;BME280;60683;51.730;8.762;2024-03-17T01:43:01;101148.00;;;3.06;100.00
72640;BME280;60683;51.730;8.762;2024-03-17T01:45:47;101142.50;;;2.99;100.00
72640;BME280;60683;51.730;8.762;2024-03-17T01:48:31;101146.28;;;2.96;100.00
72640;BME280;60683;51.730;8.762;2024-03-17T01:51:19;101151.94;;;2.93;100.00
72640;BME280;60683;51.730;8.762;2024-03-17T01:54:04;101143.91;;;2.85;100.00
72640;BME280;60683;51.730;8.762;2024-03-17T01:56:50;101142.41;;;2.83;100.00
72640;BME280;60683;51.730;8.762;2024-03-17T01:59:34;101139.22;;;2.79;100.00
72640;BME280;60683;51.730;8.762;2024-03-17T02:02:20;101132.88;;;2.72;100.00
72640;BME280;60683;51.730;8.762;2024-03-17T02:05:06;101133.34;;;2.67;100.00
72640;BME280;60683;51.730;8.762;2024-03-17T02:07:54;101127.91;;;2.69;100.00
72640;BME280;60683;51.730;8.762;2024-03-17T02:10:39;101129.72;;;2.69;100.00
72640;BME280;60683;51.730;8.762;2024-03-17T02:13:24;101129.19;;;2.65;100.00
72640;BME280;60683;51.730;8.762;2024-03-17T02:16:09;101114.56;;;2.61;100.00
72640;BME280;60683;51.730;8.762;2024-03-17T02:18:57;101122.72;;;2.59;100.00
72640;BME280;60683;51.730;8.762;2024-03-17T02:21:43;101111.09;;;2.60;100.00
72640;BME280;60683;51.730;8.762;2024-03-17T02:24:29;101111.28;;;2.59;100.00
72640;BME280;60683;51.730;8.762;2024-03-17T02:27:14;101113.09;;;2.58;100.00
72640;BME280;60683;51.730;8.762;2024-03-17T02:29:59;101116.38;;;2.52;100.00
72640;BME280;60683;51.730;8.762;2024-03-17T02:32:43;101112.22;;;2.50;100.00
72640;BME280;60683;51.730;8.762;2024-03-17T02:35:29;101118.00;;;2.45;100.00
72640;BME280;60683;51.730;8.762;2024-03-17T02:38:15;101119.03;;;2.52;100.00
72640;BME280;60683;51.730;8.762;2024-03-17T02:41:21;101118.66;;;2.47;100.00
72640;BME280;60683;51.730;8.762;2024-03-17T02:44:07;101120.66;;;2.45;100.00
72640;BME280;60683;51.730;8.762;2024-03-17T02:46:52;101112.16;;;2.42;100.00
72640;BME280;60683;51.730;8.762;2024-03-17T02:49:38;101114.13;;;2.40;100.00
72640;BME280;60683;51.730;8.762;2024-03-17T02:52:24;101114.75;;;2.33;100.00
72640;BME280;60683;51.730;8.762;2024-03-17T02:55:10;101113.41;;;2.29;100.00
72640;BME280;60683;51.730;8.762;2024-03-17T02:57:56;101108.09;;;2.29;100.00
72640;BME280;60683;51.730;8.762;2024-03-17T03:00:41;101103.09;;;2.26;100.00
72640;BME280;60683;51.730;8.762;2024-03-17T03:03:27;101105.06;;;2.24;100.00
72640;BME280;60683;51.730;8.762;2024-03-17T03:06:14;101105.75;;;2.26;100.00
72640;BME280;60683;51.730;8.762;2024-03-17T03:08:59;101099.97;;;2.31;100.00
72640;BME280;60683;51.730;8.762;2024-03-17T03:11:45;101098.53;;;2.37;100.00
72640;BME280;60683;51.730;8.762;2024-03-17T03:14:32;101106.84;;;2.42;100.00
72640;BME280;60683;51.730;8.762;2024-03-17T03:17:17;101094.56;;;2.41;100.00
72640;BME280;60683;51.730;8.762;2024-03-17T03:20:04;101103.22;;;2.43;100.00
72640;BME280;60683;51.730;8.762;2024-03-17T03:22:50;101100.25;;;2.46;100.00
72640;BME280;60683;51.730;8.762;2024-03-17T03:25:35;101099.63;;;2.52;100.00
72640;BME280;60683;51.730;8.762;2024-03-17T03:28:21;101101.44;;;2.51;100.00
72640;BME280;60683;51.730;8.762;2024-03-17T03:31:11;101102.28;;;2.52;100.00
72640;BME280;60683;51.730;8.762;2024-03-17T03:33:58;101103.63;;;2.56;100.00
72640;BME280;60683;51.730;8.762;2024-03-17T03:36:46;101094.97;;;2.54;100.00
72640;BME280;60683;51.730;8.762;2024-03-17T03:39:31;101094.97;;;2.54;100.00
72640;BME280;60683;51.730;8.762;2024-03-17T03:42:17;101101.66;;;2.58;100.00
72640;BME280;60683;51.730;8.762;2024-03-17T03:45:02;101098.31;;;2.56;100.00
72640;BME280;60683;51.730;8.762;2024-03-17T03:47:49;101100.75;;;2.49;100.00
72640;BME280;60683;51.730;8.762;2024-03-17T03:50:35;101103.25;;;2.51;100.00
72640;BME280;60683;51.730;8.762;2024-03-17T03:53:21;101104.25;;;2.50;100.00
72640;BME280;60683;51.730;8.762;2024-03-17T03:56:06;101106.53;;;2.45;100.00
72640;BME280;60683;51.730;8.762;2024-03-17T03:58:52;101103.22;;;2.43;100.00
72640;BME280;60683;51.730;8.762;2024-03-17T04:01:37;101104.50;;;2.39;100.00
72640;BME280;60683;51.730;8.762;2024-03-17T04:04:24;101106.84;;;2.42;100.00
72640;BME280;60683;51.730;8.762;2024-03-17T04:07:09;101109.88;;;2.47;100.00
72640;BME280;60683;51.730;8.762;2024-03-17T04:09:54;101111.69;;;2.46;100.00
72640;BME280;60683;51.730;8.762;2024-03-17T04:12:40;101104.56;;;2.47;100.00
72640;BME280;60683;51.730;8.762;2024-03-17T04:15:26;101111.69;;;2.46;100.00
72640;BME280;60683;51.730;8.762;2024-03-17T04:18:11;101106.03;;;2.41;100.00
72640;BME280;60683;51.730;8.762;2024-03-17T04:21:01;101106.53;;;2.45;100.00
72640;BME280;60683;51.730;8.762;2024-03-17T04:23:47;101100.72;;;2.41;100.00
72640;BME280;60683;51.730;8.762;2024-03-17T04:26:33;101104.88;;;2.44;100.00
72640;BME280;60683;51.730;8.762;2024-03-17T04:29:18;101107.47;;;2.36;100.00
72640;BME280;60683;51.730;8.762;2024-03-17T04:32:05;101111.13;;;2.35;100.00
72640;BME280;60683;51.730;8.762;2024-03-17T04:34:50;101108.78;;;2.31;100.00
72640;BME280;60683;51.730;8.762;2024-03-17T04:37:37;101112.03;;;2.25;100.00
72640;BME280;60683;51.730;8.762;2024-03-17T04:40:24;101116.84;;;2.22;100.00
72640;BME280;60683;51.730;8.762;2024-03-17T04:43:10;101125.94;;;2.19;100.00
72640;BME280;60683;51.730;8.762;2024-03-17T04:45:59;101127.53;;;2.12;100.00
72640;BME280;60683;51.730;8.762;2024-03-17T04:48:45;101126.16;;;2.08;100.00
72640;BME280;60683;51.730;8.762;2024-03-17T04:51:30;101126.50;;;2.05;100.00
72640;BME280;60683;51.730;8.762;2024-03-17T04:54:18;101130.44;;;2.01;100.00
72640;BME280;60683;51.730;8.762;2024-03-17T04:57:04;101123.47;;;2.00;100.00
72640;BME280;60683;51.730;8.762;2024-03-17T04:59:49;101132.66;;;2.06;100.00
72640;BME280;60683;51.730;8.762;2024-03-17T05:02:35;101131.47;;;2.08;100.00
72640;BME280;60683;51.730;8.762;2024-03-17T05:05:21;101134.66;;;2.12;100.00
72640;BME280;60683;51.730;8.762;2024-03-17T05:08:07;101138.44;;;2.09;100.00
72640;BME280;60683;51.730;8.762;2024-03-17T05:10:57;101131.03;;;2.13;100.00
72640;BME280;60683;51.730;8.762;2024-03-17T05:13:42;101133.38;;;2.16;100.00
72640;BME280;60683;51.730;8.762;2024-03-17T05:16:28;101133.88;;;2.19;100.00
72640;BME280;60683;51.730;8.762;2024-03-17T05:19:14;101138.56;;;2.25;100.00
72640;BME280;60683;51.730;8.762;2024-03-17T05:22:01;101128.94;;;2.24;100.00
72640;BME280;60683;51.730;8.762;2024-03-17T05:24:47;101141.22;;;2.25;100.00
72640;BME280;60683;51.730;8.762;2024-03-17T05:27:34;101135.94;;;2.25;100.00
72640;BME280;60683;51.730;8.762;2024-03-17T05:30:20;101141.28;;;2.33;100.00
72640;BME280;60683;51.730;8.762;2024-03-17T05:33:05;101136.34;;;2.39;100.00
72640;BME280;60683;51.730;8.762;2024-03-17T05:35:52;101132.03;;;2.38;100.00
72640;BME280;60683;51.730;8.762;2024-03-17T05:38:38;101132.09;;;2.46;100.00
72640;BME280;60683;51.730;8.762;2024-03-17T05:41:23;101129.13;;;2.49;100.00
72640;BME280;60683;51.730;8.762;2024-03-17T05:44:12;101125.16;;;2.53;100.00
72640;BME280;60683;51.730;8.762;2024-03-17T05:46:58;101127.50;;;2.56;100.00
72640;BME280;60683;51.730;8.762;2024-03-17T05:49:44;101134.19;;;2.60;100.00
72640;BME280;60683;51.730;8.762;2024-03-17T05:52:30;101133.53;;;2.66;100.00
72640;BME280;60683;51.730;8.762;2024-03-17T05:55:15;101131.53;;;2.68;100.00
72640;BME280;60683;51.730;8.762;2024-03-17T05:58:01;101118.78;;;2.72;100.00
72640;BME280;60683;51.730;8.762;2024-03-17T06:00:48;101123.97;;;2.81;100.00
72640;BME280;60683;51.730;8.762;2024-03-17T06:03:33;101127.16;;;2.85;100.00
72640;BME280;60683;51.730;8.762;2024-03-17T06:06:20;101125.38;;;2.93;100.00
72640;BME280;60683;51.730;8.762;2024-03-17T06:09:06;101119.91;;;2.95;100.00
72640;BME280;60683;51.730;8.762;2024-03-17T06:11:53;101126.22;;;3.02;100.00
72640;BME280;60683;51.730;8.762;2024-03-17T06:14:39;101130.91;;;3.08;100.00
72640;BME280;60683;51.730;8.762;2024-03-17T06:17:26;101118.78;;;3.14;100.00
72640;BME280;60683;51.730;8.762;2024-03-17T06:20:11;101118.13;;;3.20;100.00
72640;BME280;60683;51.730;8.762;2024-03-17T06:22:58;101113.69;;;3.28;100.00
72640;BME280;60683;51.730;8.762;2024-03-17T06:25:44;101106.25;;;3.40;100.00
72640;BME280;60683;51.730;8.762;2024-03-17T06:28:30;101103.59;;;3.48;100.00
72640;BME280;60683;51.730;8.762;2024-03-17T06:31:16;101110.59;;;3.57;100.00
72640;BME280;60683;51.730;8.762;2024-03-17T06:34:03;101109.41;;;3.68;100.00
72640;BME280;60683;51.730;8.762;2024-03-17T06:36:49;101107.28;;;3.80;100.00
72640;BME280;60683;51.730;8.762;2024-03-17T06:39:34;101101.13;;;3.87;100.00
72640;BME280;60683;51.730;8.762;2024-03-17T06:42:20;101101.47;;;4.01;100.00
72640;BME280;60683;51.730;8.762;2024-03-17T06:45:06;101108.28;;;4.11;100.00
72640;BME280;60683;51.730;8.762;2024-03-17T06:47:52;101103.59;;;4.21;100.00
72640;BME280;60683;51.730;8.762;2024-03-17T06:50:41;101106.56;;;4.26;100.00
72640;BME280;60683;51.730;8.762;2024-03-17T06:53:26;101109.22;;;4.35;100.00
72640;BME280;60683;51.730;8.762;2024-03-17T06:56:12;101106.91;;;4.40;100.00
72640;BME280;60683;51.730;8.762;2024-03-17T06:58:58;101105.53;;;4.52;100.00
72640;BME280;60683;51.730;8.762;2024-03-17T07:01:43;101108.03;;;4.61;100.00
72640;BME280;60683;51.730;8.762;2024-03-17T07:04:28;101106.19;;;4.62;100.00
72640;BME280;60683;51.730;8.762;2024-03-17T07:07:16;101098.81;;;4.72;100.00
72640;BME280;60683;51.730;8.762;2024-03-17T07:10:01;101103.28;;;4.80;100.00
72640;BME280;60683;51.730;8.762;2024-03-17T07:12:49;101100.44;;;4.81;100.00
72640;BME280;60683;51.730;8.762;2024-03-17T07:15:34;101090.72;;;4.96;100.00
72640;BME280;60683;51.730;8.762;2024-03-17T07:18:20;101095.31;;;5.11;100.00
72640;BME280;60683;51.730;8.762;2024-03-17T07:21:06;101094.28;;;5.20;100.00
72640;BME280;60683;51.730;8.762;2024-03-17T07:23:56;101086.81;;;5.38;100.00
72640;BME280;60683;51.730;8.762;2024-03-17T07:26:43;101092.94;;;5.47;100.00
72640;BME280;60683;51.730;8.762;2024-03-17T07:29:28;101083.69;;;5.57;99.86
72640;BME280;60683;51.730;8.762;2024-03-17T07:32:14;101079.97;;;5.67;99.94
72640;BME280;60683;51.730;8.762;2024-03-17T07:34:59;101075.50;;;5.82;98.51
72640;BME280;60683;51.730;8.762;2024-03-17T07:37:45;101071.44;;;5.94;96.43
72640;BME280;60683;51.730;8.762;2024-03-17T07:40:32;101071.66;;;6.07;95.89
72640;BME280;60683;51.730;8.762;2024-03-17T07:43:18;101072.75;;;6.27;93.01
72640;BME280;60683;51.730;8.762;2024-03-17T07:46:05;101060.91;;;6.45;90.99
72640;BME280;60683;51.730;8.762;2024-03-17T07:48:50;101064.59;;;6.58;90.57
72640;BME280;60683;51.730;8.762;2024-03-17T07:51:36;101064.00;;;6.78;89.63
72640;BME280;60683;51.730;8.762;2024-03-17T07:54:21;101064.63;;;6.94;87.50
72640;BME280;60683;51.730;8.762;2024-03-17T07:57:08;101058.16;;;7.04;86.32
72640;BME280;60683;51.730;8.762;2024-03-17T07:59:54;101067.75;;;7.13;86.24
72640;BME280;60683;51.730;8.762;2024-03-17T08:02:39;101067.75;;;7.13;85.99
72640;BME280;60683;51.730;8.762;2024-03-17T08:05:25;101059.47;;;7.29;83.99
72640;BME280;60683;51.730;8.762;2024-03-17T08:08:10;101070.25;;;7.57;83.26
72640;BME280;60683;51.730;8.762;2024-03-17T08:10:55;101060.78;;;7.76;78.23
72640;BME280;60683;51.730;8.762;2024-03-17T08:13:42;101052.06;;;7.95;76.88
72640;BME280;60683;51.730;8.762;2024-03-17T08:16:28;101059.38;;;8.08;77.22
72640;BME280;60683;51.730;8.762;2024-03-17T08:19:14;101062.16;;;8.21;76.76
72640;BME280;60683;51.730;8.762;2024-03-17T08:21:59;101057.81;;;8.48;70.55
72640;BME280;60683;51.730;8.762;2024-03-17T08:24:45;101060.81;;;8.66;70.75
72640;BME280;60683;51.730;8.762;2024-03-17T08:27:31;101054.31;;;8.82;68.38
72640;BME280;60683;51.730;8.762;2024-03-17T08:30:18;101054.75;;;8.99;67.27
72640;BME280;60683;51.730;8.762;2024-03-17T08:33:03;101054.94;;;8.90;64.72
72640;BME280;60683;51.730;8.762;2024-03-17T08:35:54;101058.59;;;8.76;66.75
72640;BME280;60683;51.730;8.762;2024-03-17T08:38:39;101060.03;;;8.72;68.83
72640;BME280;60683;51.730;8.762;2024-03-17T08:41:25;101059.56;;;8.62;67.85
72640;BME280;60683;51.730;8.762;2024-03-17T08:44:10;101059.19;;;8.72;66.55
72640;BME280;60683;51.730;8.762;2024-03-17T08:46:58;101055.69;;;8.71;67.94
72640;BME280;60683;51.730;8.762;2024-03-17T08:49:43;101051.00;;;8.80;67.01
72640;BME280;60683;51.730;8.762;2024-03-17T08:52:29;101047.28;;;8.87;66.91
72640;BME280;60683;51.730;8.762;2024-03-17T08:55:16;101041.97;;;9.01;68.41
72640;BME280;60683;51.730;8.762;2024-03-17T08:58:01;101049.06;;;9.15;67.22
72640;BME280;60683;51.730;8.762;2024-03-17T09:00:47;101046.22;;;9.29;66.88
72640;BME280;60683;51.730;8.762;2024-03-17T09:03:34;101045.78;;;9.39;67.30
72640;BME280;60683;51.730;8.762;2024-03-17T09:06:19;101047.47;;;9.53;65.98
72640;BME280;60683;51.730;8.762;2024-03-17T09:09:07;101046.03;;;9.57;67.07
72640;BME280;60683;51.730;8.762;2024-03-17T09:11:52;101047.06;;;9.56;65.65
72640;BME280;60683;51.730;8.762;2024-03-17T09:14:38;101048.50;;;9.52;65.14
72640;BME280;60683;51.730;8.762;2024-03-17T09:17:24;101043.75;;;9.48;66.46
72640;BME280;60683;51.730;8.762;2024-03-17T09:20:12;101040.25;;;9.54;67.16
72640;BME280;60683;51.730;8.762;2024-03-17T09:22:59;101037.97;;;9.57;67.35
72640;BME280;60683;51.730;8.762;2024-03-17T09:25:54;101039.81;;;9.50;65.83
72640;BME280;60683;51.730;8.762;2024-03-17T09:28:40;101035.50;;;9.49;64.68
72640;BME280;60683;51.730;8.762;2024-03-17T09:31:25;101039.41;;;9.53;64.46
72640;BME280;60683;51.730;8.762;2024-03-17T09:34:11;101026.84;;;9.60;64.00
72640;BME280;60683;51.730;8.762;2024-03-17T09:36:58;101034.28;;;9.65;63.39
72640;BME280;60683;51.730;8.762;2024-03-17T09:39:46;101040.91;;;9.82;61.38
72640;BME280;60683;51.730;8.762;2024-03-17T09:42:32;101041.72;;;9.96;61.24
72640;BME280;60683;51.730;8.762;2024-03-17T09:45:18;101029.72;;;10.05;61.86
72640;BME280;60683;51.730;8.762;2024-03-17T09:48:04;101036.94;;;10.38;60.68
72640;BME280;60683;51.730;8.762;2024-03-17T09:50:51;101036.50;;;10.41;59.14
72640;BME280;60683;51.730;8.762;2024-03-17T09:53:41;101041.22;;;10.58;56.79
72640;BME280;60683;51.730;8.762;2024-03-17T09:56:27;101034.75;;;10.79;55.84
72640;BME280;60683;51.730;8.762;2024-03-17T09:59:13;101048.50;;;11.03;53.51
72640;BME280;60683;51.730;8.762;2024-03-17T10:01:59;101038.94;;;11.13;53.45
72640;BME280;60683;51.730;8.762;2024-03-17T10:04:47;101042.25;;;11.47;52.86
72640;BME280;60683;51.730;8.762;2024-03-17T10:07:37;101044.72;;;11.48;51.42
72640;BME280;60683;51.730;8.762;2024-03-17T10:10:25;101040.38;;;11.47;51.29
72640;BME280;60683;51.730;8.762;2024-03-17T10:13:12;101036.03;;;11.46;50.31
72640;BME280;60683;51.730;8.762;2024-03-17T10:15:58;101034.94;;;11.54;51.09
72640;BME280;60683;51.730;8.762;2024-03-17T10:18:43;101035.50;;;11.38;50.55
72640;BME280;60683;51.730;8.762;2024-03-17T10:21:29;101024.06;;;11.42;51.12
72640;BME280;60683;51.730;8.762;2024-03-17T10:24:19;101020.25;;;11.25;50.40
72640;BME280;60683;51.730;8.762;2024-03-17T10:27:10;101016.66;;;11.38;51.58
72640;BME280;60683;51.730;8.762;2024-03-17T10:29:56;101016.13;;;11.47;51.87
72640;BME280;60683;51.730;8.762;2024-03-17T10:32:42;101015.66;;;11.32;52.58
72640;BME280;60683;51.730;8.762;2024-03-17T10:35:29;101009.00;;;10.97;53.00
72640;BME280;60683;51.730;8.762;2024-03-17T10:38:15;101014.72;;;10.69;54.93
72640;BME280;60683;51.730;8.762;2024-03-17T10:41:01;101007.94;;;10.53;55.26
72640;BME280;60683;51.730;8.762;2024-03-17T10:43:49;101013.13;;;10.41;56.14
72640;BME280;60683;51.730;8.762;2024-03-17T10:46:35;101000.69;;;10.53;56.51
72640;BME280;60683;51.730;8.762;2024-03-17T10:49:21;101002.34;;;10.61;56.63
72640;BME280;60683;51.730;8.762;2024-03-17T10:52:15;100998.41;;;10.64;55.64
72640;BME280;60683;51.730;8.762;2024-03-17T10:55:07;100990.25;;;10.83;55.02
72640;BME280;60683;51.730;8.762;2024-03-17T10:57:53;100993.88;;;10.95;52.53
72640;BME280;60683;51.730;8.762;2024-03-17T11:00:43;100991.38;;;11.01;50.92
72640;BME280;60683;51.730;8.762;2024-03-17T11:03:34;100995.97;;;10.93;51.25
72640;BME280;60683;51.730;8.762;2024-03-17T11:06:20;101001.19;;;11.26;51.71
72640;BME280;60683;51.730;8.762;2024-03-17T11:09:07;100997.63;;;11.57;52.48
72640;BME280;60683;51.730;8.762;2024-03-17T11:11:58;101002.75;;;11.41;52.60
72640;BME280;60683;51.730;8.762;2024-03-17T11:14:45;100994.88;;;11.39;53.90
72640;BME280;60683;51.730;8.762;2024-03-17T11:17:32;101001.72;;;11.42;51.49
72640;BME280;60683;51.730;8.762;2024-03-17T11:20:21;101004.75;;;11.45;52.98
72640;BME280;60683;51.730;8.762;2024-03-17T11:23:07;101007.63;;;11.19;53.03
72640;BME280;60683;51.730;8.762;2024-03-17T11:25:53;100998.03;;;11.61;50.64
72640;BME280;60683;51.730;8.762;2024-03-17T11:28:50;101000.75;;;11.86;50.95
72640;BME280;60683;51.730;8.762;2024-03-17T11:31:44;100994.53;;;12.29;51.19
72640;BME280;60683;51.730;8.762;2024-03-17T11:34:37;100979.69;;;12.74;48.89
72640;BME280;60683;51.730;8.762;2024-03-17T11:37:42;100982.34;;;12.92;47.72
72640;BME280;60683;51.730;8.762;2024-03-17T11:40:27;100979.66;;;13.22;45.68
72640;BME280;60683;51.730;8.762;2024-03-17T11:43:16;100978.66;;;13.35;46.29
72640;BME280;60683;51.730;8.762;2024-03-17T11:46:01;100973.75;;;13.55;46.16
72640;BME280;60683;51.730;8.762;2024-03-17T11:48:47;100980.31;;;13.59;47.84
72640;BME280;60683;51.730;8.762;2024-03-17T11:51:34;100963.63;;;13.39;47.98
72640;BME280;60683;51.730;8.762;2024-03-17T11:54:21;100965.66;;;13.67;47.91
72640;BME280;60683;51.730;8.762;2024-03-17T11:57:06;100962.34;;;13.42;47.28
72640;BME280;60683;51.730;8.762;2024-03-17T11:59:53;100950.41;;;13.96;46.37
72640;BME280;60683;51.730;8.762;2024-03-17T12:02:39;100962.13;;;13.78;47.01
72640;BME280;60683;51.730;8.762;2024-03-17T12:05:23;100952.19;;;13.25;47.78
72640;BME280;60683;51.730;8.762;2024-03-17T12:08:19;100951.41;;;12.77;48.95
72640;BME280;60683;51.730;8.762;2024-03-17T12:11:16;100950.56;;;12.95;49.00
72640;BME280;60683;51.730;8.762;2024-03-17T12:14:13;100940.75;;;13.42;49.13
72640;BME280;60683;51.730;8.762;2024-03-17T12:17:01;100947.69;;;13.73;47.78
72640;BME280;60683;51.730;8.762;2024-03-17T12:19:47;100947.34;;;13.81;45.00
72640;BME280;60683;51.730;8.762;2024-03-17T12:22:33;100934.84;;;14.15;46.04
72640;BME280;60683;51.730;8.762;2024-03-17T12:25:22;100932.84;;;14.10;45.92
72640;BME280;60683;51.730;8.762;2024-03-17T12:28:15;100938.97;;;13.59;46.87
72640;BME280;60683;51.730;8.762;2024-03-17T12:31:01;100937.56;;;13.33;47.30
72640;BME280;60683;51.730;8.762;2024-03-17T12:33:46;100937.09;;;13.36;48.38
72640;BME280;60683;51.730;8.762;2024-03-17T12:36:31;100932.59;;;13.30;47.61
72640;BME280;60683;51.730;8.762;2024-03-17T12:39:18;100935.81;;;13.09;47.34
72640;BME280;60683;51.730;8.762;2024-03-17T12:42:06;100944.34;;;12.94;48.12
72640;BME280;60683;51.730;8.762;2024-03-17T12:44:54;100944.34;;;12.94;47.66
72640;BME280;60683;51.730;8.762;2024-03-17T12:47:39;100947.28;;;12.92;48.18
72640;BME280;60683;51.730;8.762;2024-03-17T12:50:25;100941.28;;;13.02;48.52
72640;BME280;60683;51.730;8.762;2024-03-17T12:53:15;100940.84;;;12.75;47.90
72640;BME280;60683;51.730;8.762;2024-03-17T12:56:00;100940.03;;;12.75;49.13
72640;BME280;60683;51.730;8.762;2024-03-17T12:59:09;100940.47;;;13.02;48.58
72640;BME280;60683;51.730;8.762;2024-03-17T13:02:13;100941.53;;;12.71;49.06
72640;BME280;60683;51.730;8.762;2024-03-17T13:05:06;100937.88;;;12.65;49.98
72640;BME280;60683;51.730;8.762;2024-03-17T13:07:52;100933.72;;;12.33;50.26
72640;BME280;60683;51.730;8.762;2024-03-17T13:10:41;100930.13;;;12.39;50.59
72640;BME280;60683;51.730;8.762;2024-03-17T13:13:28;100932.22;;;12.37;51.17
72640;BME280;60683;51.730;8.762;2024-03-17T13:16:16;100933.28;;;12.17;51.28
72640;BME280;60683;51.730;8.762;2024-03-17T13:19:01;100925.81;;;12.49;50.63
72640;BME280;60683;51.730;8.762;2024-03-17T13:21:47;100915.69;;;12.33;50.73
72640;BME280;60683;51.730;8.762;2024-03-17T13:24:32;100915.16;;;12.43;50.15
72640;BME280;60683;51.730;8.762;2024-03-17T13:27:18;100905.63;;;12.40;50.27
72640;BME280;60683;51.730;8.762;2024-03-17T13:30:04;100901.91;;;12.53;50.80
72640;BME280;60683;51.730;8.762;2024-03-17T13:32:53;100900.94;;;12.66;51.66
72640;BME280;60683;51.730;8.762;2024-03-17T13:35:42;100890.47;;;12.87;49.80
72640;BME280;60683;51.730;8.762;2024-03-17T13:38:27;100894.34;;;12.62;51.13
72640;BME280;60683;51.730;8.762;2024-03-17T13:41:13;100897.59;;;12.52;51.49
72640;BME280;60683;51.730;8.762;2024-03-17T13:43:58;100901.06;;;12.41;52.83
72640;BME280;60683;51.730;8.762;2024-03-17T13:46:44;100896.66;;;12.28;51.99
72640;BME280;60683;51.730;8.762;2024-03-17T13:49:31;100890.53;;;12.51;52.48
72640;BME280;60683;51.730;8.762;2024-03-17T13:52:17;100882.81;;;12.54;52.02
72640;BME280;60683;51.730;8.762;2024-03-17T13:55:04;100881.41;;;12.52;52.18
72640;BME280;60683;51.730;8.762;2024-03-17T13:57:51;100872.13;;;12.48;51.83
72640;BME280;60683;51.730;8.762;2024-03-17T14:00:38;100870.97;;;12.55;54.03
72640;BME280;60683;51.730;8.762;2024-03-17T14:03:26;100869.63;;;12.65;52.24
72640;BME280;60683;51.730;8.762;2024-03-17T14:06:13;100854.72;;;12.62;53.97
72640;BME280;60683;51.730;8.762;2024-03-17T14:08:59;100856.81;;;12.60;51.76
72640;BME280;60683;51.730;8.762;2024-03-17T14:11:45;100853.06;;;12.61;52.03
72640;BME280;60683;51.730;8.762;2024-03-17T14:14:31;100859.44;;;12.37;52.15
72640;BME280;60683;51.730;8.762;2024-03-17T14:17:16;100862.88;;;12.44;53.33
72640;BME280;60683;51.730;8.762;2024-03-17T14:20:02;100855.16;;;12.59;52.82
72640;BME280;60683;51.730;8.762;2024-03-17T14:22:50;100851.06;;;12.56;52.41
72640;BME280;60683;51.730;8.762;2024-03-17T14:25:38;100839.38;;;12.74;52.80
72640;BME280;60683;51.730;8.762;2024-03-17T14:28:24;100842.88;;;12.63;52.70
72640;BME280;60683;51.730;8.762;2024-03-17T14:31:09;100845.09;;;12.66;53.26
72640;BME280;60683;51.730;8.762;2024-03-17T14:33:56;100839.72;;;12.66;52.60